Time;durP1;ratioP1;P1;durP2;ratioP2;P2;SDS_P1;SDS_P2;PMS_P1;PMS_P2;Temp;Humidity;BMP_temperature;BMP_pressure;BME280_temperature;BME280_humidity;BME280_pressure;Samples;Min_cycle;Max_cycle;Signal;HPM_P1;HPM_P2
2021/06/04 00:02:20;;;;;;;36.93;25.47;;;;;;;;;;4428487;32;20220;-77
2021/06/04 00:04:46;;;;;;;39.88;24.85;;;;;;;;;;4420171;32;20287;-77
2021/06/04 00:07:11;;;;;;;37.15;24.83;;;;;;;;;;4433984;32;20153;-78
2021/06/04 00:09:36;;;;;;;44.05;27.35;;;;;;;;;;4433865;32;20180;-78
2021/06/04 00:12:02;;;;;;;37.67;25.27;;;;;;;;;;4419793;32;20154;-77
2021/06/04 00:14:31;;;;;;;36.20;24.27;;;;;;;;;;4402387;32;20454;-77
2021/06/04 00:16:58;;;;;;;45.60;28.08;;;;;;;;;;4413228;32;20241;-78
2021/06/04 00:19:27;;;;;;;40.08;27.25;;;;;;;;;;4419329;32;20199;-77
2021/06/04 00:21:54;;;;;;;34.13;22.48;;;;;;;;;;4418653;32;20161;-78
2021/06/04 00:24:20;;;;;;;39.75;24.67;;;;;;;;;;4417535;32;20186;-78
2021/06/04 00:26:47;;;;;;;43.13;26.85;;;;;;;;;;4411509;32;20264;-77
2021/06/04 00:29:12;;;;;;;35.85;22.98;;;;;;;;;;4416192;32;20343;-77
2021/06/04 00:31:38;;;;;;;39.95;25.48;;;;;;;;;;4417869;32;20583;-77
2021/06/04 00:34:04;;;;;;;36.60;23.45;;;;;;;;;;4418912;32;20489;-77
2021/06/04 00:36:29;;;;;;;42.33;26.00;;;;;;;;;;4415618;32;20495;-77
2021/06/04 00:38:54;;;;;;;40.40;24.60;;;;;;;;;;4411623;32;20178;-79
2021/06/04 00:41:23;;;;;;;42.17;26.90;;;;;;;;;;4402376;32;20254;-77
2021/06/04 00:43:51;;;;;;;41.50;24.92;;;;;;;;;;4401757;32;20193;-77
2021/06/04 00:46:16;;;;;;;40.08;26.00;;;;;;;;;;4403457;32;20223;-77
2021/06/04 00:48:41;;;;;;;41.83;25.75;;;;;;;;;;4411978;32;20142;-77
2021/06/04 00:51:06;;;;;;;44.95;26.35;;;;;;;;;;4412347;32;20168;-76
2021/06/04 00:53:32;;;;;;;47.88;27.40;;;;;;;;;;4415905;32;20281;-77
2021/06/04 00:55:58;;;;;;;40.00;25.25;;;;;;;;;;4416954;32;20158;-76
2021/06/04 00:58:25;;;;;;;43.60;27.65;;;;;;;;;;4417386;32;20177;-76
2021/06/04 01:00:53;;;;;;;49.13;29.37;;;;;;;;;;4411760;32;20172;-77
2021/06/04 01:03:20;;;;;;;48.25;28.40;;;;;;;;;;4414577;32;20229;-77
2021/06/04 01:05:45;;;;;;;45.33;28.00;;;;;;;;;;4415295;32;20165;-77
2021/06/04 01:08:22;;;;;;;40.25;25.45;;;;;;;;;;4418299;32;20138;-77
2021/06/04 01:10:47;;;;;;;43.55;25.60;;;;;;;;;;4417331;32;20175;-77
2021/06/04 01:13:19;;;;;;;38.77;24.93;;;;;;;;;;4409297;32;20178;-77
2021/06/04 01:16:03;;;;;;;46.17;29.17;;;;;;;;;;4402792;32;20291;-77
2021/06/04 01:18:47;;;;;;;38.28;25.27;;;;;;;;;;4408601;32;20180;-76
2021/06/04 01:21:31;;;;;;;41.15;25.30;;;;;;;;;;4417061;32;20180;-77
2021/06/04 01:24:11;;;;;;;43.95;27.48;;;;;;;;;;4409463;32;20189;-78
2021/06/04 01:26:48;;;;;;;38.22;25.42;;;;;;;;;;4412793;32;20203;-77
2021/06/04 01:29:19;;;;;;;42.22;26.05;;;;;;;;;;4416862;32;20185;-77
2021/06/04 01:31:53;;;;;;;47.85;29.92;;;;;;;;;;4419797;32;20157;-77
2021/06/04 01:34:20;;;;;;;40.78;26.05;;;;;;;;;;4418300;32;20942;-77
2021/06/04 01:36:51;;;;;;;45.97;29.08;;;;;;;;;;4411408;32;20150;-77
2021/06/04 01:39:18;;;;;;;42.17;26.92;;;;;;;;;;4417378;32;20169;-77
2021/06/04 01:41:46;;;;;;;43.75;28.83;;;;;;;;;;4414490;32;20189;-78
2021/06/04 01:44:15;;;;;;;45.78;26.92;;;;;;;;;;4408099;32;20187;-78
2021/06/04 01:46:43;;;;;;;43.75;28.00;;;;;;;;;;4409277;32;20170;-77
2021/06/04 01:49:10;;;;;;;45.10;27.55;;;;;;;;;;4413038;32;20166;-78
2021/06/04 01:51:44;;;;;;;44.28;28.10;;;;;;;;;;4416384;32;20184;-77
2021/06/04 01:54:32;;;;;;;50.90;29.08;;;;;;;;;;4417659;32;20193;-78
2021/06/04 01:57:00;;;;;;;45.75;27.30;;;;;;;;;;4413019;32;20177;-78
2021/06/04 01:59:30;;;;;;;44.55;27.77;;;;;;;;;;4416282;32;20185;-77
2021/06/04 02:01:56;;;;;;;44.40;27.55;;;;;;;;;;4402074;32;20165;-77
2021/06/04 02:04:26;;;;;;;45.22;26.60;;;;;;;;;;4409737;32;20200;-77
2021/06/04 02:06:52;;;;;;;49.10;30.37;;;;;;;;;;4406075;32;20134;-78
2021/06/04 02:09:19;;;;;;;45.67;27.25;;;;;;;;;;4408225;32;20198;-77
2021/06/04 02:11:45;;;;;;;42.13;26.70;;;;;;;;;;4403983;32;20173;-76
2021/06/04 02:14:11;;;;;;;44.40;28.17;;;;;;;;;;4415689;32;20150;-77
2021/06/04 02:16:42;;;;;;;40.38;25.85;;;;;;;;;;4421749;32;20138;-79
2021/06/04 02:19:31;;;;;;;49.42;29.95;;;;;;;;;;4408366;32;20184;-77
2021/06/04 02:22:10;;;;;;;52.40;29.00;;;;;;;;;;4436855;32;20133;-77
2021/06/04 02:24:40;;;;;;;49.55;31.05;;;;;;;;;;4423148;32;20192;-78
2021/06/04 02:27:27;;;;;;;52.62;31.80;;;;;;;;;;4410403;32;20240;-78
2021/06/04 02:29:56;;;;;;;48.83;28.05;;;;;;;;;;4421143;32;20207;-78
2021/06/04 02:32:42;;;;;;;45.88;28.25;;;;;;;;;;4427726;32;20622;-78
2021/06/04 02:35:10;;;;;;;46.78;26.73;;;;;;;;;;4380933;32;20203;-78
2021/06/04 02:37:35;;;;;;;40.88;23.45;;;;;;;;;;4406659;32;20221;-78
2021/06/04 02:40:21;;;;;;;37.95;22.45;;;;;;;;;;4420671;32;20188;-77
2021/06/04 02:42:46;;;;;;;37.58;23.60;;;;;;;;;;4408602;32;20165;-77
2021/06/04 02:45:19;;;;;;;37.38;23.02;;;;;;;;;;4406003;32;20173;-78
2021/06/04 02:47:47;;;;;;;40.67;24.23;;;;;;;;;;4420389;32;20137;-77
2021/06/04 02:50:20;;;;;;;35.60;22.33;;;;;;;;;;4412283;32;20161;-76
2021/06/04 02:52:45;;;;;;;35.58;22.17;;;;;;;;;;4436926;32;20141;-78
2021/06/04 02:55:17;;;;;;;40.97;22.52;;;;;;;;;;4422538;32;20222;-78
2021/06/04 02:57:42;;;;;;;35.20;22.23;;;;;;;;;;4436589;32;20145;-77
2021/06/04 03:00:18;;;;;;;38.70;23.53;;;;;;;;;;4427167;32;20168;-77
2021/06/04 03:02:44;;;;;;;38.33;23.90;;;;;;;;;;4407606;32;20269;-76
2021/06/04 03:05:17;;;;;;;40.28;23.30;;;;;;;;;;4405800;32;20216;-77
2021/06/04 03:07:43;;;;;;;44.03;25.05;;;;;;;;;;4419972;32;20165;-77
2021/06/04 03:10:14;;;;;;;40.12;23.50;;;;;;;;;;4421944;32;20220;-78
2021/06/04 03:12:42;;;;;;;40.38;23.62;;;;;;;;;;4422206;32;20211;-78
2021/06/04 03:15:12;;;;;;;47.45;25.65;;;;;;;;;;4421963;32;20150;-77
2021/06/04 03:17:37;;;;;;;45.47;25.52;;;;;;;;;;4434708;32;20146;-78
2021/06/04 03:20:06;;;;;;;37.38;21.52;;;;;;;;;;4421634;32;20212;-78
2021/06/04 03:22:35;;;;;;;37.38;23.23;;;;;;;;;;4435604;32;20255;-78
2021/06/04 03:25:04;;;;;;;34.67;22.35;;;;;;;;;;4421058;32;20546;-77
2021/06/04 03:27:30;;;;;;;43.72;24.60;;;;;;;;;;4426929;32;20205;-78
2021/06/04 03:29:55;;;;;;;43.22;24.33;;;;;;;;;;4405903;32;20161;-77
2021/06/04 03:32:20;;;;;;;41.80;25.45;;;;;;;;;;4409659;32;20193;-77
2021/06/04 03:34:46;;;;;;;37.78;23.02;;;;;;;;;;4419875;32;20141;-77
2021/06/04 03:37:13;;;;;;;47.50;25.25;;;;;;;;;;4429917;32;20256;-77
2021/06/04 03:39:40;;;;;;;41.17;22.55;;;;;;;;;;4415051;32;20612;-78
2021/06/04 03:42:07;;;;;;;41.47;22.42;;;;;;;;;;4421470;32;20582;-77
2021/06/04 03:44:33;;;;;;;42.53;23.00;;;;;;;;;;4434656;32;20226;-77
2021/06/04 03:46:59;;;;;;;37.38;20.95;;;;;;;;;;4411024;32;20217;-77
2021/06/04 03:49:24;;;;;;;35.65;21.75;;;;;;;;;;4426266;32;20192;-78
2021/06/04 03:51:52;;;;;;;44.55;26.58;;;;;;;;;;4415136;32;20200;-77
2021/06/04 03:54:19;;;;;;;46.10;23.62;;;;;;;;;;4422286;32;20651;-77
2021/06/04 03:56:45;;;;;;;42.78;24.30;;;;;;;;;;4423395;32;20150;-77
2021/06/04 03:59:11;;;;;;;44.83;24.15;;;;;;;;;;4407853;32;20567;-78
2021/06/04 04:01:40;;;;;;;44.58;26.08;;;;;;;;;;4421036;32;20634;-76
2021/06/04 04:04:06;;;;;;;44.15;25.50;;;;;;;;;;4422053;32;20165;-78
2021/06/04 04:06:32;;;;;;;51.28;26.42;;;;;;;;;;4422972;32;20229;-78
2021/06/04 04:08:57;;;;;;;43.87;24.15;;;;;;;;;;4407013;32;20199;-78
2021/06/04 04:11:22;;;;;;;48.53;26.40;;;;;;;;;;4425750;32;20145;-77
2021/06/04 04:13:48;;;;;;;43.40;25.65;;;;;;;;;;4412785;32;20165;-77
2021/06/04 04:16:13;;;;;;;48.00;26.58;;;;;;;;;;4416812;32;20614;-78
2021/06/04 04:18:39;;;;;;;50.35;28.12;;;;;;;;;;4421673;32;20193;-78
2021/06/04 04:21:06;;;;;;;41.90;25.55;;;;;;;;;;4417741;32;20284;-77
2021/06/04 04:23:40;;;;;;;46.92;27.10;;;;;;;;;;4424083;32;20236;-76
2021/06/04 04:26:06;;;;;;;53.03;26.15;;;;;;;;;;4406043;32;20239;-77
2021/06/04 04:28:33;;;;;;;50.03;29.23;;;;;;;;;;4419982;32;20154;-76
2021/06/04 04:30:59;;;;;;;39.97;25.02;;;;;;;;;;4429958;32;20156;-77
2021/06/04 04:33:25;;;;;;;51.25;29.05;;;;;;;;;;4425767;32;20221;-76
2021/06/04 04:35:50;;;;;;;43.67;25.35;;;;;;;;;;4419646;32;20241;-77
2021/06/04 04:38:21;;;;;;;42.62;24.55;;;;;;;;;;4431414;32;20154;-77
2021/06/04 04:40:49;;;;;;;45.70;27.13;;;;;;;;;;4423836;32;20211;-77
2021/06/04 04:43:14;;;;;;;46.30;28.05;;;;;;;;;;4423692;32;20145;-78
2021/06/04 04:45:40;;;;;;;51.97;27.80;;;;;;;;;;4434800;32;20549;-77
2021/06/04 04:48:05;;;;;;;48.35;28.80;;;;;;;;;;4416634;32;20158;-75
2021/06/04 04:50:31;;;;;;;54.67;29.08;;;;;;;;;;4419416;32;20521;-76
2021/06/04 04:52:57;;;;;;;54.50;28.98;;;;;;;;;;4413793;32;20203;-76
2021/06/04 04:55:23;;;;;;;52.30;30.10;;;;;;;;;;4413447;32;20611;-78
2021/06/04 04:57:48;;;;;;;53.30;30.37;;;;;;;;;;4415911;32;20432;-77
2021/06/04 05:00:16;;;;;;;49.33;27.52;;;;;;;;;;4419527;32;20275;-77
2021/06/04 05:02:41;;;;;;;55.92;30.00;;;;;;;;;;4418924;32;20157;-77
2021/06/04 05:05:06;;;;;;;51.63;29.75;;;;;;;;;;4425529;32;20203;-77
2021/06/04 05:07:32;;;;;;;54.15;29.87;;;;;;;;;;4418338;32;20157;-77
2021/06/04 05:09:57;;;;;;;50.72;29.15;;;;;;;;;;4408055;32;20605;-76
2021/06/04 05:12:23;;;;;;;50.78;29.83;;;;;;;;;;4433393;32;20161;-77
2021/06/04 05:14:48;;;;;;;48.08;27.25;;;;;;;;;;4418902;32;20633;-76
2021/06/04 05:17:14;;;;;;;48.33;29.55;;;;;;;;;;4414745;32;20189;-77
2021/06/04 05:19:42;;;;;;;48.08;29.00;;;;;;;;;;4417458;32;20335;-78
2021/06/04 05:22:08;;;;;;;44.38;25.77;;;;;;;;;;4434185;32;20142;-78
2021/06/04 05:24:33;;;;;;;44.47;28.30;;;;;;;;;;4428898;32;20469;-77
2021/06/04 05:26:58;;;;;;;45.40;25.88;;;;;;;;;;4402776;32;20197;-76
2021/06/04 05:29:23;;;;;;;44.67;28.10;;;;;;;;;;4417103;32;20573;-77
2021/06/04 05:31:49;;;;;;;39.90;24.00;;;;;;;;;;4403432;32;20371;-78
2021/06/04 05:34:14;;;;;;;41.42;24.27;;;;;;;;;;4417111;32;20146;-78
2021/06/04 05:36:39;;;;;;;45.05;26.45;;;;;;;;;;4402958;32;20196;-78
2021/06/04 05:39:17;;;;;;;36.97;23.62;;;;;;;;;;4415659;32;20543;-78
2021/06/04 05:41:43;;;;;;;37.53;21.90;;;;;;;;;;4420325;32;20168;-76
2021/06/04 05:44:14;;;;;;;38.45;23.38;;;;;;;;;;4406818;32;20413;-77
2021/06/04 05:46:39;;;;;;;36.50;22.80;;;;;;;;;;4421499;32;20232;-76
2021/06/04 05:49:04;;;;;;;39.53;24.55;;;;;;;;;;4417374;32;20570;-77
2021/06/04 05:51:30;;;;;;;41.77;24.77;;;;;;;;;;4421133;32;20570;-77
2021/06/04 05:53:56;;;;;;;41.72;25.58;;;;;;;;;;4435515;32;20263;-77
2021/06/04 05:56:22;;;;;;;41.10;24.60;;;;;;;;;;4435964;32;20157;-77
2021/06/04 05:58:47;;;;;;;39.17;25.67;;;;;;;;;;4437237;32;20190;-77
2021/06/04 06:01:15;;;;;;;38.67;24.77;;;;;;;;;;4421344;32;20265;-73
2021/06/04 06:03:40;;;;;;;40.70;26.90;;;;;;;;;;4431315;32;20153;-75
2021/06/04 06:06:07;;;;;;;37.50;25.48;;;;;;;;;;4426218;32;20479;-74
2021/06/04 06:08:32;;;;;;;45.85;26.50;;;;;;;;;;4430195;32;20191;-73
2021/06/04 06:10:58;;;;;;;41.33;26.98;;;;;;;;;;4435983;32;20415;-74
2021/06/04 06:13:25;;;;;;;39.22;26.25;;;;;;;;;;4413881;32;20479;-75
2021/06/04 06:15:50;;;;;;;41.55;28.12;;;;;;;;;;4421457;32;20157;-74
2021/06/04 06:18:16;;;;;;;41.53;26.10;;;;;;;;;;4412237;32;20165;-73
2021/06/04 06:20:43;;;;;;;39.55;23.75;;;;;;;;;;4419617;32;20261;-74
2021/06/04 06:23:08;;;;;;;41.40;27.27;;;;;;;;;;4426638;32;20193;-73
2021/06/04 06:25:36;;;;;;;41.78;27.70;;;;;;;;;;4424875;32;20178;-74
2021/06/04 06:28:02;;;;;;;42.38;27.23;;;;;;;;;;4419514;32;20141;-74
2021/06/04 06:30:28;;;;;;;39.95;26.00;;;;;;;;;;4429446;32;20205;-74
2021/06/04 06:32:54;;;;;;;37.72;22.67;;;;;;;;;;4435632;32;20508;-74
2021/06/04 06:35:22;;;;;;;38.20;24.27;;;;;;;;;;4435734;32;20222;-74
2021/06/04 06:37:47;;;;;;;40.78;25.98;;;;;;;;;;4435911;32;20183;-73
2021/06/04 06:40:13;;;;;;;34.10;24.85;;;;;;;;;;4435275;32;20570;-74
2021/06/04 06:42:38;;;;;;;41.08;26.12;;;;;;;;;;4406903;32;20189;-73
2021/06/04 06:45:05;;;;;;;40.83;26.00;;;;;;;;;;4406671;32;20258;-74
2021/06/04 06:47:30;;;;;;;34.80;24.02;;;;;;;;;;4422423;32;20310;-73
2021/06/04 06:49:55;;;;;;;40.63;24.75;;;;;;;;;;4420959;32;20169;-74
2021/06/04 06:52:20;;;;;;;36.92;22.52;;;;;;;;;;4426478;32;20583;-74
2021/06/04 06:54:46;;;;;;;35.45;24.77;;;;;;;;;;4423372;32;20234;-74
2021/06/04 06:57:11;;;;;;;37.65;24.25;;;;;;;;;;4431691;32;20439;-73
2021/06/04 06:59:36;;;;;;;29.87;19.00;;;;;;;;;;4419632;32;20154;-74
2021/06/04 07:02:04;;;;;;;27.25;18.58;;;;;;;;;;4418649;32;20154;-74
2021/06/04 07:04:30;;;;;;;29.65;16.37;;;;;;;;;;4404935;32;20197;-73
2021/06/04 07:06:56;;;;;;;27.15;16.95;;;;;;;;;;4419614;32;20176;-74
2021/06/04 07:09:23;;;;;;;23.05;14.40;;;;;;;;;;4418170;32;20169;-75
2021/06/04 07:11:52;;;;;;;24.77;14.77;;;;;;;;;;4435467;32;20476;-75
2021/06/04 07:14:18;;;;;;;23.25;15.73;;;;;;;;;;4434729;32;20224;-75
2021/06/04 07:16:44;;;;;;;25.73;15.40;;;;;;;;;;4434590;32;20137;-75
2021/06/04 07:19:09;;;;;;;24.95;14.82;;;;;;;;;;4432520;32;20636;-74
2021/06/04 07:21:35;;;;;;;21.10;12.80;;;;;;;;;;4425854;32;20161;-74
2021/06/04 07:24:00;;;;;;;26.55;13.93;;;;;;;;;;4435949;32;20146;-74
2021/06/04 07:26:26;;;;;;;23.55;15.18;;;;;;;;;;4432752;32;20137;-74
2021/06/04 07:28:51;;;;;;;25.30;16.90;;;;;;;;;;4407634;32;20286;-75
2021/06/04 07:31:18;;;;;;;21.92;15.70;;;;;;;;;;4425621;32;20181;-73
2021/06/04 07:33:45;;;;;;;23.87;14.95;;;;;;;;;;4420050;32;20169;-74
2021/06/04 07:36:13;;;;;;;22.30;12.95;;;;;;;;;;4422248;32;20196;-74
2021/06/04 07:38:38;;;;;;;20.50;15.48;;;;;;;;;;4420345;32;20214;-74
2021/06/04 07:41:04;;;;;;;19.95;14.80;;;;;;;;;;4432145;32;20204;-73
2021/06/04 07:43:32;;;;;;;22.70;14.73;;;;;;;;;;4443942;32;20262;-73
2021/06/04 07:45:57;;;;;;;26.95;15.60;;;;;;;;;;4419355;32;20195;-72
2021/06/04 07:48:22;;;;;;;27.92;17.20;;;;;;;;;;4410523;32;20162;-73
2021/06/04 07:50:49;;;;;;;29.17;16.52;;;;;;;;;;4429125;32;20146;-73
2021/06/04 07:53:15;;;;;;;27.30;17.00;;;;;;;;;;4419183;32;20630;-73
2021/06/04 07:55:41;;;;;;;25.60;16.98;;;;;;;;;;4428788;32;20217;-73
2021/06/04 07:58:07;;;;;;;23.95;15.38;;;;;;;;;;4428002;32;20192;-74
2021/06/04 08:00:32;;;;;;;26.17;15.50;;;;;;;;;;4417510;32;20138;-73
2021/06/04 08:02:59;;;;;;;24.08;14.90;;;;;;;;;;4403712;32;20244;-73
2021/06/04 08:05:25;;;;;;;25.30;15.52;;;;;;;;;;4419169;32;20126;-74
2021/06/04 08:07:50;;;;;;;23.48;14.98;;;;;;;;;;4404492;32;20291;-74
2021/06/04 08:10:16;;;;;;;24.15;16.05;;;;;;;;;;4418478;32;20141;-74
2021/06/04 08:12:42;;;;;;;24.98;17.08;;;;;;;;;;4417769;32;20138;-73
2021/06/04 08:15:14;;;;;;;22.42;15.82;;;;;;;;;;4410653;32;20244;-74
2021/06/04 08:17:40;;;;;;;27.73;16.48;;;;;;;;;;4431892;32;20193;-73
2021/06/04 08:20:07;;;;;;;23.45;15.73;;;;;;;;;;4419831;32;20158;-74
2021/06/04 08:22:33;;;;;;;27.17;17.80;;;;;;;;;;4422430;32;20149;-74
2021/06/04 08:24:58;;;;;;;23.58;15.85;;;;;;;;;;4431778;32;20202;-74
2021/06/04 08:27:23;;;;;;;25.55;15.75;;;;;;;;;;4426984;32;20158;-73
2021/06/04 08:29:48;;;;;;;23.70;17.33;;;;;;;;;;4413273;32;20209;-73
2021/06/04 08:32:14;;;;;;;25.05;16.92;;;;;;;;;;4425104;32;20171;-73
2021/06/04 08:34:41;;;;;;;22.42;15.32;;;;;;;;;;4418723;32;20275;-74
2021/06/04 08:37:06;;;;;;;26.58;17.98;;;;;;;;;;4419103;32;20154;-74
2021/06/04 08:39:33;;;;;;;27.75;18.15;;;;;;;;;;4408575;32;20690;-74
2021/06/04 08:42:14;;;;;;;21.48;15.05;;;;;;;;;;4421280;32;20173;-74
2021/06/04 08:44:39;;;;;;;26.75;17.08;;;;;;;;;;4424163;32;20612;-69
2021/06/04 08:47:13;;;;;;;30.60;17.33;;;;;;;;;;4411166;32;20173;-71
2021/06/04 08:49:38;;;;;;;21.55;14.13;;;;;;;;;;4425671;32;20165;-70
2021/06/04 08:52:13;;;;;;;22.77;15.80;;;;;;;;;;4411922;32;20242;-71
2021/06/04 08:54:47;;;;;;;21.48;15.43;;;;;;;;;;4429360;32;20302;-69
2021/06/04 08:57:15;;;;;;;21.25;13.70;;;;;;;;;;4411572;32;20177;-71
2021/06/04 08:59:41;;;;;;;18.33;11.27;;;;;;;;;;4424982;32;20149;-70
2021/06/04 09:02:19;;;;;;;18.92;12.27;;;;;;;;;;4412986;32;20617;-69
2021/06/04 09:04:47;;;;;;;16.52;11.95;;;;;;;;;;4420381;32;20186;-69
2021/06/04 09:07:19;;;;;;;18.87;13.35;;;;;;;;;;4424760;32;20154;-71
2021/06/04 09:09:50;;;;;;;16.15;13.02;;;;;;;;;;4419453;32;20184;-70
2021/06/04 09:12:18;;;;;;;19.73;13.25;;;;;;;;;;4411665;32;20173;-70
2021/06/04 09:14:44;;;;;;;20.92;14.43;;;;;;;;;;4428059;32;20245;-71
2021/06/04 09:17:33;;;;;;;17.33;12.57;;;;;;;;;;4430988;32;20304;-71
2021/06/04 09:20:15;;;;;;;19.75;12.95;;;;;;;;;;4429281;32;20162;-72
2021/06/04 09:22:44;;;;;;;20.35;13.00;;;;;;;;;;4419196;32;20458;-69
2021/06/04 09:25:14;;;;;;;14.60;10.80;;;;;;;;;;4423110;32;20218;-70
2021/06/04 09:27:41;;;;;;;13.80;11.15;;;;;;;;;;4421121;32;20463;-71
2021/06/04 09:30:15;;;;;;;17.92;12.60;;;;;;;;;;4424510;32;20166;-71
2021/06/04 09:32:42;;;;;;;17.87;11.50;;;;;;;;;;4428902;32;20149;-70
2021/06/04 09:35:12;;;;;;;21.10;13.75;;;;;;;;;;4422522;32;20157;-71
2021/06/04 09:37:38;;;;;;;20.50;13.90;;;;;;;;;;4423157;32;20211;-71
2021/06/04 09:40:23;;;;;;;15.30;10.93;;;;;;;;;;4432609;32;20165;-70
2021/06/04 09:42:48;;;;;;;15.70;11.60;;;;;;;;;;4418166;32;20468;-71
2021/06/04 09:45:15;;;;;;;19.55;14.60;;;;;;;;;;4431400;32;20224;-69
2021/06/04 09:47:58;;;;;;;18.85;13.70;;;;;;;;;;4414394;32;20235;-71
2021/06/04 09:50:30;;;;;;;17.30;11.35;;;;;;;;;;4416494;32;20168;-71
2021/06/04 09:53:06;;;;;;;19.60;14.65;;;;;;;;;;4407511;32;20504;-71
2021/06/04 09:55:32;;;;;;;20.30;15.30;;;;;;;;;;4416218;32;20181;-71
2021/06/04 09:58:09;;;;;;;19.70;14.43;;;;;;;;;;4427469;32;20176;-71
2021/06/04 10:00:42;;;;;;;21.40;16.08;;;;;;;;;;4402071;32;20207;-69
2021/06/04 10:03:15;;;;;;;17.85;12.70;;;;;;;;;;4421979;32;20165;-70
2021/06/04 10:05:40;;;;;;;21.75;15.32;;;;;;;;;;4416353;32;20426;-71
2021/06/04 10:08:13;;;;;;;20.15;15.30;;;;;;;;;;4417106;32;20192;-71
2021/06/04 10:10:39;;;;;;;21.55;16.55;;;;;;;;;;4425816;32;20161;-70
2021/06/04 10:13:11;;;;;;;17.23;14.00;;;;;;;;;;4410611;32;20351;-71
2021/06/04 10:15:38;;;;;;;17.37;14.27;;;;;;;;;;4412027;32;20336;-70
2021/06/04 10:18:23;;;;;;;19.67;13.15;;;;;;;;;;4406562;32;20291;-71
2021/06/04 10:20:49;;;;;;;22.05;14.80;;;;;;;;;;4425980;32;20220;-70
2021/06/04 10:23:22;;;;;;;19.75;15.40;;;;;;;;;;4426446;32;20150;-71
2021/06/04 10:25:50;;;;;;;22.55;16.60;;;;;;;;;;4424785;32;20187;-71
2021/06/04 10:28:27;;;;;;;16.85;11.82;;;;;;;;;;4414444;32;20169;-71
2021/06/04 10:30:53;;;;;;;17.50;11.73;;;;;;;;;;4428385;32;20191;-70
2021/06/04 10:33:27;;;;;;;18.83;13.88;;;;;;;;;;4411682;32;20475;-70
2021/06/04 10:36:00;;;;;;;20.20;12.37;;;;;;;;;;4408954;32;20181;-71
2021/06/04 10:38:35;;;;;;;20.30;13.00;;;;;;;;;;4425455;32;20485;-71
2021/06/04 10:41:09;;;;;;;17.83;13.10;;;;;;;;;;4418198;32;20491;-70
2021/06/04 10:43:53;;;;;;;16.12;13.57;;;;;;;;;;4423264;32;20695;-71
2021/06/04 10:46:35;;;;;;;13.77;11.10;;;;;;;;;;4434762;32;20195;-70
2021/06/04 10:49:17;;;;;;;21.95;15.38;;;;;;;;;;4432478;32;20225;-71
2021/06/04 10:51:55;;;;;;;21.27;15.10;;;;;;;;;;4424740;32;20149;-70
2021/06/04 10:54:27;;;;;;;16.70;12.98;;;;;;;;;;4429696;32;20175;-70
2021/06/04 10:56:58;;;;;;;21.05;14.35;;;;;;;;;;4418156;32;20344;-70
2021/06/04 10:59:38;;;;;;;19.35;13.95;;;;;;;;;;4409394;32;20157;-70
2021/06/04 11:02:14;;;;;;;20.55;13.05;;;;;;;;;;4432000;32;20268;-70
2021/06/04 11:04:39;;;;;;;17.87;13.62;;;;;;;;;;4425204;32;20193;-71
2021/06/04 11:07:16;;;;;;;15.70;10.48;;;;;;;;;;4420591;32;20138;-71
2021/06/04 11:09:57;;;;;;;14.85;12.07;;;;;;;;;;4419280;32;20165;-71
2021/06/04 11:12:41;;;;;;;16.33;12.07;;;;;;;;;;4423670;32;20188;-71
2021/06/04 11:15:16;;;;;;;18.58;13.52;;;;;;;;;;4431889;32;20229;-71
2021/06/04 11:17:56;;;;;;;17.52;11.73;;;;;;;;;;4415343;32;20178;-71
2021/06/04 11:20:23;;;;;;;19.90;13.73;;;;;;;;;;4425801;32;20145;-71
2021/06/04 11:22:57;;;;;;;18.55;13.85;;;;;;;;;;4425440;32;20260;-72
2021/06/04 11:25:33;;;;;;;19.27;13.25;;;;;;;;;;4431530;32;20206;-71
2021/06/04 11:28:02;;;;;;;16.80;12.57;;;;;;;;;;4430454;32;20238;-71
2021/06/04 11:30:29;;;;;;;16.62;12.13;;;;;;;;;;4420123;32;20586;-71
2021/06/04 11:32:59;;;;;;;17.52;11.32;;;;;;;;;;4422904;32;20161;-71
2021/06/04 11:35:26;;;;;;;17.00;12.75;;;;;;;;;;4406840;32;20146;-70
2021/06/04 11:38:11;;;;;;;17.90;13.27;;;;;;;;;;4428646;32;20236;-70
2021/06/04 11:40:44;;;;;;;17.10;12.73;;;;;;;;;;4424430;32;20579;-70
2021/06/04 11:43:12;;;;;;;16.83;13.13;;;;;;;;;;4429673;32;20183;-71
2021/06/04 11:45:38;;;;;;;18.17;13.30;;;;;;;;;;4433209;32;20138;-71
2021/06/04 11:48:32;;;;;;;17.27;13.90;;;;;;;;;;4422978;32;20158;-70
2021/06/04 11:51:16;;;;;;;15.82;12.60;;;;;;;;;;4422038;32;20292;-70
2021/06/04 11:53:41;;;;;;;13.45;11.07;;;;;;;;;;4430661;32;20304;-71
2021/06/04 11:56:11;;;;;;;17.00;14.02;;;;;;;;;;4426429;32;20194;-72
2021/06/04 11:58:36;;;;;;;22.17;16.77;;;;;;;;;;4416491;32;20169;-71
2021/06/04 12:01:10;;;;;;;20.75;13.15;;;;;;;;;;4426518;32;20187;-71
2021/06/04 12:03:36;;;;;;;25.42;17.00;;;;;;;;;;4431411;32;20137;-71
2021/06/04 12:06:20;;;;;;;21.52;15.68;;;;;;;;;;4423124;32;20221;-71
2021/06/04 12:08:45;;;;;;;20.75;15.73;;;;;;;;;;4426762;32;20825;-71
2021/06/04 12:11:16;;;;;;;20.85;14.55;;;;;;;;;;4434344;32;20150;-71
2021/06/04 12:13:43;;;;;;;17.17;13.93;;;;;;;;;;4433438;32;20634;-70
2021/06/04 12:16:25;;;;;;;16.73;11.60;;;;;;;;;;4408870;32;20214;-71
2021/06/04 12:18:59;;;;;;;19.62;15.25;;;;;;;;;;4432749;32;20557;-72
2021/06/04 12:21:39;;;;;;;18.02;12.98;;;;;;;;;;4433660;32;20150;-71
2021/06/04 12:24:06;;;;;;;17.00;13.27;;;;;;;;;;4428401;32;20141;-72
2021/06/04 12:26:42;;;;;;;15.60;12.48;;;;;;;;;;4428442;32;20205;-72
2021/06/04 12:29:26;;;;;;;14.38;11.77;;;;;;;;;;4426401;32;20304;-72
2021/06/04 12:32:00;;;;;;;17.90;12.32;;;;;;;;;;4433506;32;20573;-71
2021/06/04 12:34:38;;;;;;;16.73;13.32;;;;;;;;;;4418775;32;20134;-71
2021/06/04 12:37:26;;;;;;;15.38;13.13;;;;;;;;;;4421852;32;20501;-72
2021/06/04 12:39:51;;;;;;;13.65;10.85;;;;;;;;;;4432619;32;20141;-72
2021/06/04 12:42:27;;;;;;;12.60;9.10;;;;;;;;;;4424397;32;20284;-71
2021/06/04 12:44:59;;;;;;;13.65;9.25;;;;;;;;;;4438952;32;20243;-71
2021/06/04 12:47:26;;;;;;;11.30;8.90;;;;;;;;;;4418989;32;20138;-71
2021/06/04 12:50:03;;;;;;;10.90;8.65;;;;;;;;;;4426688;32;20162;-71
2021/06/04 12:52:28;;;;;;;12.10;8.65;;;;;;;;;;4422876;32;20243;-72
2021/06/04 12:55:10;;;;;;;11.73;9.23;;;;;;;;;;4421007;32;20157;-71
2021/06/04 12:57:35;;;;;;;12.02;8.70;;;;;;;;;;4433321;32;20232;-72
2021/06/04 13:00:13;;;;;;;10.97;7.67;;;;;;;;;;4412170;32;20225;-71
2021/06/04 13:02:38;;;;;;;12.60;9.25;;;;;;;;;;4427618;32;20271;-71
2021/06/04 13:05:07;;;;;;;17.15;9.90;;;;;;;;;;4427314;32;20156;-70
2021/06/04 13:07:42;;;;;;;12.00;9.15;;;;;;;;;;4423957;32;20165;-71
2021/06/04 13:10:22;;;;;;;12.85;9.45;;;;;;;;;;4415411;32;20199;-71
2021/06/04 13:12:48;;;;;;;10.85;9.27;;;;;;;;;;4409412;32;20162;-71
2021/06/04 13:15:24;;;;;;;19.25;15.98;;;;;;;;;;4424800;32;20161;-71
2021/06/04 13:17:53;;;;;;;17.92;13.68;;;;;;;;;;4427747;32;20153;-72
2021/06/04 13:20:23;;;;;;;19.15;14.43;;;;;;;;;;4405256;32;20212;-71
2021/06/04 13:22:49;;;;;;;17.52;14.98;;;;;;;;;;4424261;32;20603;-72
2021/06/04 13:25:20;;;;;;;15.00;11.85;;;;;;;;;;4422747;32;20473;-72
2021/06/04 13:27:46;;;;;;;16.40;11.85;;;;;;;;;;4423578;32;20169;-71
2021/06/04 13:30:13;;;;;;;17.40;10.65;;;;;;;;;;4432087;32;20188;-71
2021/06/04 13:32:48;;;;;;;19.55;12.23;;;;;;;;;;4412522;32;20174;-71
2021/06/04 13:35:25;;;;;;;12.00;9.32;;;;;;;;;;4425408;32;20136;-72
2021/06/04 13:37:54;;;;;;;15.43;11.88;;;;;;;;;;4422569;32;20197;-71
2021/06/04 13:40:21;;;;;;;15.82;11.32;;;;;;;;;;4421353;32;20176;-71
2021/06/04 13:42:48;;;;;;;13.95;11.95;;;;;;;;;;4418338;32;20359;-72
2021/06/04 13:45:15;;;;;;;15.80;12.02;;;;;;;;;;4405446;32;20263;-71
2021/06/04 13:47:43;;;;;;;13.25;10.77;;;;;;;;;;4417023;32;20215;-71
2021/06/04 13:50:27;;;;;;;19.30;13.88;;;;;;;;;;4419044;32;20239;-72
2021/06/04 13:53:18;;;;;;;16.00;11.90;;;;;;;;;;4419607;32;20184;-72
2021/06/04 13:55:44;;;;;;;17.08;10.63;;;;;;;;;;4421350;32;20657;-72
2021/06/04 13:58:12;;;;;;;14.68;11.55;;;;;;;;;;4422731;32;20228;-71
2021/06/04 14:00:38;;;;;;;14.57;11.63;;;;;;;;;;4421583;32;20153;-71
2021/06/04 14:03:14;;;;;;;15.60;11.15;;;;;;;;;;4426604;32;20176;-70
2021/06/04 14:05:40;;;;;;;13.85;9.50;;;;;;;;;;4430414;32;20217;-71
2021/06/04 14:08:12;;;;;;;14.13;10.07;;;;;;;;;;4426416;32;20468;-71
2021/06/04 14:10:37;;;;;;;14.00;9.77;;;;;;;;;;4408508;32;20176;-71
2021/06/04 14:13:06;;;;;;;12.13;9.07;;;;;;;;;;4420181;32;20282;-72
2021/06/04 14:15:40;;;;;;;11.88;9.20;;;;;;;;;;4429503;32;20185;-72
2021/06/04 14:18:23;;;;;;;11.23;8.73;;;;;;;;;;4426499;32;20153;-72
2021/06/04 14:20:49;;;;;;;14.68;9.32;;;;;;;;;;4428693;32;20199;-72
2021/06/04 14:23:21;;;;;;;14.80;10.43;;;;;;;;;;4425567;32;20150;-72
2021/06/04 14:25:46;;;;;;;9.52;8.18;;;;;;;;;;4426732;32;20305;-72
2021/06/04 14:28:14;;;;;;;11.70;8.02;;;;;;;;;;4426685;32;20228;-72
2021/06/04 14:30:43;;;;;;;9.57;7.93;;;;;;;;;;4427095;32;20224;-71
2021/06/04 14:33:10;;;;;;;14.18;8.90;;;;;;;;;;4408538;32;20199;-71